KPRS

Presidio Lely International Airport

Presidio, Texas, USA
METAR KPRS 100715Z AUTO 03004KT 10SM CLR 09/05 A3035 RMK AO2 T00900051
Observed Flight Rules
Dec-10 @ 07:15 UTC (16 minutes ago) Visual Flight Rules
Wind Visibility Clouds
30° at 4 knots 10 miles
  • Clear skies
Temperatures Readings
Current 9°C / 48°F
Dewpoint 5°C / 41°F
Humidity 76%
Altimeter 30.35" Hg
Pressure 1028 hPa
Elevation 896
METAR KPRS 100715Z AUTO 03004KT 10SM CLR 09/05 A3035 RMK AO2 T00900051
Observed Flight Rules
Dec-10 @ 07:15 UTC
(16 minutes ago)
VFR
Wind Visibility
30° at 4 knots 10 miles
Clouds
  • Clear skies
Temperature Dewpoint
9°C / 48°F 5°C / 41°F
Humidity Altimeter Pressure
76% 30.35" Hg 1028 hPa